Time;durP1;ratioP1;P1;durP2;ratioP2;P2;SDS_P1;SDS_P2;PMS_P1;PMS_P2;Temp;Humidity;BMP_temperature;BMP_pressure;BME280_temperature;BME280_humidity;BME280_pressure;Samples;Min_cycle;Max_cycle;Signal;HPM_P1;HPM_P2
2021/07/03 00:01:28;;;;;;;29.95;18.27;;;16.20;91.80;;;;;;5059221;28;20079;-85
2021/07/03 00:03:54;;;;;;;34.00;21.02;;;16.10;91.90;;;;;;5061172;28;20139;-85
2021/07/03 00:06:20;;;;;;;34.05;21.02;;;16.20;91.80;;;;;;5060815;28;20025;-85
2021/07/03 00:08:45;;;;;;;39.85;21.33;;;16.00;91.70;;;;;;5062543;28;20025;-86
2021/07/03 00:11:11;;;;;;;37.95;23.67;;;16.00;91.80;;;;;;5063391;28;20036;-86
2021/07/03 00:13:37;;;;;;;35.25;22.63;;;16.00;91.90;;;;;;5068797;28;20009;-85
2021/07/03 00:16:04;;;;;;;45.75;24.33;;;16.00;91.90;;;;;;5062009;28;20031;-86
2021/07/03 00:18:29;;;;;;;34.17;21.00;;;16.00;92.00;;;;;;5074081;28;20025;-85
2021/07/03 00:20:55;;;;;;;39.22;23.15;;;16.00;92.00;;;;;;5063646;28;20085;-88
2021/07/03 00:23:26;;;;;;;38.28;22.48;;;15.90;91.90;;;;;;5062406;28;20032;-89
2021/07/03 00:25:52;;;;;;;42.53;23.42;;;16.00;92.00;;;;;;5061644;28;20086;-87
2021/07/03 00:28:18;;;;;;;38.50;23.52;;;15.90;91.90;;;;;;5059382;28;20013;-86
2021/07/03 00:30:43;;;;;;;42.13;23.67;;;15.90;91.80;;;;;;5060006;28;20032;-86
2021/07/03 00:33:09;;;;;;;34.55;22.05;;;15.80;91.80;;;;;;5059428;28;20392;-85
2021/07/03 00:35:35;;;;;;;39.08;23.63;;;15.80;91.80;;;;;;5059209;28;20020;-85
2021/07/03 00:38:00;;;;;;;40.80;24.42;;;15.80;91.80;;;;;;5059045;28;20174;-85
2021/07/03 00:40:27;;;;;;;39.15;23.85;;;15.80;92.00;;;;;;5057566;28;20102;-86
2021/07/03 00:42:53;;;;;;;39.97;23.45;;;15.80;92.10;;;;;;5058128;28;20025;-85
2021/07/03 00:45:19;;;;;;;41.40;22.98;;;15.70;92.50;;;;;;5059419;28;20115;-85
2021/07/03 00:47:44;;;;;;;34.90;21.45;;;15.70;92.20;;;;;;5059765;28;20024;-85
2021/07/03 00:50:11;;;;;;;35.60;21.92;;;15.70;92.20;;;;;;5061218;28;20078;-86
2021/07/03 00:52:41;;;;;;;35.17;21.77;;;15.70;92.20;;;;;;5059798;28;20025;-86
2021/07/03 00:55:07;;;;;;;37.90;21.55;;;15.70;92.10;;;;;;5058683;28;20028;-84
2021/07/03 00:57:33;;;;;;;35.53;22.30;;;15.70;92.10;;;;;;5061176;28;20023;-87
2021/07/03 01:00:02;;;;;;;38.95;21.75;;;15.70;92.00;;;;;;5071807;28;20031;-88
2021/07/03 01:02:27;;;;;;;40.63;22.65;;;15.60;92.00;;;;;;5080261;28;20028;-89
2021/07/03 01:04:53;;;;;;;36.17;20.55;;;15.60;92.10;;;;;;5080750;28;20038;-89
2021/07/03 01:07:19;;;;;;;29.92;20.10;;;15.60;92.20;;;;;;5059585;28;20032;-88
2021/07/03 01:09:45;;;;;;;35.80;21.73;;;15.50;92.00;;;;;;5060312;28;20377;-88
2021/07/03 01:12:10;;;;;;;42.33;23.15;;;15.50;91.90;;;;;;5059852;28;20035;-87
2021/07/03 01:14:47;;;;;;;33.58;20.02;;;15.40;92.00;;;;;;5059404;28;20115;-86
2021/07/03 01:17:14;;;;;;;33.38;21.00;;;15.50;92.10;;;;;;5059447;28;20013;-89
2021/07/03 01:19:40;;;;;;;35.90;21.10;;;15.40;92.20;;;;;;5060307;28;20027;-88
2021/07/03 01:22:11;;;;;;;34.50;23.10;;;15.40;92.30;;;;;;5059469;28;20055;-89
2021/07/03 01:24:37;;;;;;;39.45;23.02;;;15.50;92.50;;;;;;5058869;28;20380;-87
2021/07/03 01:27:04;;;;;;;37.58;24.02;;;15.40;92.60;;;;;;5061265;28;20053;-88
2021/07/03 01:29:33;;;;;;;37.03;22.92;;;15.50;92.70;;;;;;5061238;28;20048;-89
2021/07/03 01:32:00;;;;;;;34.80;22.55;;;15.40;92.70;;;;;;5059220;28;20041;-89
2021/07/03 01:34:27;;;;;;;38.15;22.67;;;15.50;92.80;;;;;;5058967;28;20020;-89
2021/07/03 01:36:54;;;;;;;38.17;23.77;;;15.50;92.80;;;;;;5058316;28;20029;-88
2021/07/03 01:39:20;;;;;;;42.33;25.67;;;15.40;92.80;;;;;;5059531;28;20028;-87
2021/07/03 01:41:46;;;;;;;37.65;24.08;;;15.50;92.80;;;;;;5057460;28;20358;-88
2021/07/03 01:44:12;;;;;;;36.53;22.40;;;15.50;92.70;;;;;;5058192;28;20025;-87
2021/07/03 01:46:38;;;;;;;39.60;24.52;;;15.40;92.60;;;;;;5058102;28;20021;-86
2021/07/03 01:49:06;;;;;;;41.70;25.95;;;15.40;92.70;;;;;;5057397;28;20108;-89
2021/07/03 01:51:32;;;;;;;43.88;24.90;;;15.40;92.70;;;;;;5058254;28;20031;-88
2021/07/03 01:53:58;;;;;;;46.95;26.63;;;15.40;92.80;;;;;;5057781;28;20024;-89
2021/07/03 01:56:24;;;;;;;42.22;26.33;;;15.40;92.80;;;;;;5059017;28;20075;-88
2021/07/03 01:58:50;;;;;;;36.25;23.50;;;15.40;92.80;;;;;;5058065;28;20037;-88
2021/07/03 02:01:16;;;;;;;50.33;26.95;;;15.30;92.80;;;;;;5057065;28;20029;-89
2021/07/03 02:03:41;;;;;;;46.83;27.40;;;15.30;92.70;;;;;;5057311;28;20037;-87
2021/07/03 02:06:08;;;;;;;44.45;27.38;;;15.30;92.70;;;;;;5058711;28;20024;-88
2021/07/03 02:08:34;;;;;;;49.85;28.50;;;15.30;92.80;;;;;;5060392;28;20135;-90
2021/07/03 02:11:01;;;;;;;51.85;29.60;;;15.30;92.90;;;;;;5065999;28;20024;-87
2021/07/03 02:13:27;;;;;;;49.28;29.75;;;15.30;93.00;;;;;;5068689;28;20059;-85
2021/07/03 02:15:53;;;;;;;48.83;29.35;;;15.30;93.10;;;;;;5074308;28;20504;-87
2021/07/03 02:18:19;;;;;;;50.97;29.63;;;15.30;93.10;;;;;;5071868;28;20079;-87
2021/07/03 02:20:44;;;;;;;52.20;30.23;;;15.30;93.10;;;;;;5061132;28;20035;-87
2021/07/03 02:23:11;;;;;;;59.33;32.17;;;15.30;92.90;;;;;;5060829;28;20226;-87
2021/07/03 02:25:36;;;;;;;53.78;31.98;;;15.20;92.90;;;;;;5061267;28;20025;-89
2021/07/03 02:28:02;;;;;;;59.17;32.90;;;15.20;92.90;;;;;;5065003;28;20029;-87
2021/07/03 02:30:30;;;;;;;63.95;36.90;;;15.20;93.00;;;;;;5064342;28;20025;-86
2021/07/03 02:32:55;;;;;;;61.90;34.13;;;15.30;93.20;;;;;;5060803;28;20504;-86
2021/07/03 02:35:21;;;;;;;58.90;34.10;;;15.30;93.20;;;;;;5061278;28;20052;-86
2021/07/03 02:37:47;;;;;;;59.70;34.80;;;15.20;93.20;;;;;;5063011;28;20017;-87
2021/07/03 02:40:16;;;;;;;53.55;32.80;;;15.20;93.20;;;;;;5064765;28;20020;-85
2021/07/03 02:42:42;;;;;;;60.67;33.97;;;15.20;93.20;;;;;;5062040;28;20028;-86
2021/07/03 02:45:10;;;;;;;65.60;36.90;;;15.20;93.10;;;;;;5062740;28;20025;-86
2021/07/03 02:47:36;;;;;;;65.70;38.05;;;15.20;93.20;;;;;;5061385;28;20036;-85
2021/07/03 02:50:08;;;;;;;62.88;35.05;;;15.20;93.30;;;;;;5062753;28;20025;-85
2021/07/03 02:52:34;;;;;;;66.13;36.85;;;15.20;93.30;;;;;;5067884;28;20021;-85
2021/07/03 02:54:59;;;;;;;60.25;33.15;;;15.20;93.30;;;;;;5075255;28;20032;-87
2021/07/03 02:57:25;;;;;;;59.00;34.88;;;15.20;93.30;;;;;;5065631;28;20423;-87
2021/07/03 02:59:51;;;;;;;65.20;37.35;;;15.20;93.30;;;;;;5062054;28;20064;-86
2021/07/03 03:02:16;;;;;;;62.65;36.80;;;15.20;93.30;;;;;;5064285;28;20021;-87
2021/07/03 03:04:42;;;;;;;81.60;41.67;;;15.20;93.30;;;;;;5078834;28;20036;-87
2021/07/03 03:07:07;;;;;;;78.38;42.47;;;15.20;93.30;;;;;;5067881;28;20483;-86
2021/07/03 03:09:33;;;;;;;74.80;40.47;;;15.20;93.50;;;;;;5082046;28;20464;-86
2021/07/03 03:11:59;;;;;;;76.15;39.72;;;15.20;93.50;;;;;;5061001;28;20055;-86
2021/07/03 03:14:25;;;;;;;83.80;45.55;;;15.20;93.50;;;;;;5060857;28;20013;-85
2021/07/03 03:16:54;;;;;;;63.08;37.38;;;15.20;93.50;;;;;;5060049;28;20439;-86
2021/07/03 03:19:20;;;;;;;74.00;41.67;;;15.20;93.50;;;;;;5059584;28;20067;-86
2021/07/03 03:21:46;;;;;;;80.13;41.03;;;15.20;93.50;;;;;;5059619;28;20024;-86
2021/07/03 03:24:12;;;;;;;71.25;42.63;;;15.30;93.60;;;;;;5058663;28;20401;-87
2021/07/03 03:26:38;;;;;;;77.63;42.25;;;15.30;93.60;;;;;;5059038;28;20461;-86
2021/07/03 03:29:04;;;;;;;71.07;39.33;;;15.30;93.60;;;;;;5060710;28;20031;-86
2021/07/03 03:31:30;;;;;;;68.25;38.00;;;15.30;93.60;;;;;;5060564;28;20078;-85
2021/07/03 03:33:56;;;;;;;68.20;38.53;;;15.30;93.60;;;;;;5065637;28;20024;-86
2021/07/03 03:36:22;;;;;;;76.57;42.50;;;15.40;93.60;;;;;;5060942;28;20116;-86
2021/07/03 03:38:48;;;;;;;74.72;40.63;;;15.40;93.60;;;;;;5060953;28;20044;-85
2021/07/03 03:41:14;;;;;;;76.32;43.25;;;15.40;93.50;;;;;;5059991;28;20028;-84
2021/07/03 03:43:40;;;;;;;76.10;43.33;;;15.40;93.50;;;;;;5059606;28;20051;-86
2021/07/03 03:46:06;;;;;;;78.45;45.53;;;15.50;93.50;;;;;;5060188;28;20052;-85
2021/07/03 03:48:32;;;;;;;77.25;44.03;;;15.50;93.50;;;;;;5061069;28;20020;-86
2021/07/03 03:50:58;;;;;;;71.78;40.28;;;15.60;93.50;;;;;;5060924;28;20044;-88
2021/07/03 03:53:24;;;;;;;78.25;43.33;;;15.60;93.50;;;;;;5060686;28;20040;-88
2021/07/03 03:55:50;;;;;;;73.43;40.67;;;15.60;93.50;;;;;;5061587;28;20078;-88
2021/07/03 03:58:15;;;;;;;69.10;41.25;;;15.60;93.40;;;;;;5061045;28;20051;-86
2021/07/03 04:00:42;;;;;;;69.18;41.83;;;15.70;93.40;;;;;;5060869;28;20021;-86
2021/07/03 04:03:07;;;;;;;68.95;39.70;;;15.70;93.40;;;;;;5061435;28;20044;-87
2021/07/03 04:05:33;;;;;;;65.82;39.70;;;15.70;93.60;;;;;;5061055;28;20031;-86
2021/07/03 04:07:59;;;;;;;70.22;39.47;;;15.80;93.30;;;;;;5064120;28;20052;-86
2021/07/03 04:10:24;;;;;;;75.75;40.90;;;15.80;93.30;;;;;;5069690;28;20029;-88
2021/07/03 04:12:50;;;;;;;70.18;42.08;;;15.80;93.20;;;;;;5065706;28;20024;-88
2021/07/03 04:15:16;;;;;;;72.75;43.40;;;15.80;93.20;;;;;;5072612;28;20084;-89
2021/07/03 04:17:42;;;;;;;70.63;42.55;;;15.90;93.50;;;;;;5081466;28;20028;-89
2021/07/03 04:20:09;;;;;;;76.55;44.63;;;15.90;93.20;;;;;;5080107;28;20046;-89
2021/07/03 04:22:35;;;;;;;78.35;46.15;;;15.90;93.10;;;;;;5061504;28;20028;-88
2021/07/03 04:25:04;;;;;;;72.47;44.63;;;16.00;93.10;;;;;;5060027;28;20033;-89
2021/07/03 04:27:29;;;;;;;74.43;44.42;;;16.00;93.00;;;;;;5060969;28;20469;-88
2021/07/03 04:29:55;;;;;;;80.55;45.65;;;16.00;93.00;;;;;;5061322;28;20024;-88
2021/07/03 04:32:20;;;;;;;74.85;43.65;;;16.10;93.00;;;;;;5060953;28;20051;-88
2021/07/03 04:34:46;;;;;;;65.70;38.67;;;16.10;92.90;;;;;;5061086;28;20017;-88
2021/07/03 04:37:12;;;;;;;61.53;38.72;;;16.10;92.80;;;;;;5060488;28;20119;-87
2021/07/03 04:39:38;;;;;;;70.40;42.22;;;16.10;92.80;;;;;;5059894;28;20380;-89
2021/07/03 04:42:04;;;;;;;72.82;43.70;;;16.10;92.80;;;;;;5060055;28;20048;-86
2021/07/03 04:44:30;;;;;;;71.18;43.13;;;16.10;92.80;;;;;;5067584;28;20048;-83
2021/07/03 04:46:55;;;;;;;76.40;45.65;;;16.10;92.80;;;;;;5077445;28;20068;-83
2021/07/03 04:49:21;;;;;;;74.00;45.95;;;16.00;92.80;;;;;;5074462;28;20419;-83
2021/07/03 04:51:47;;;;;;;64.93;40.25;;;16.10;92.90;;;;;;5056477;28;20028;-83
2021/07/03 04:54:12;;;;;;;62.03;39.75;;;16.10;92.90;;;;;;5057254;28;20476;-87
2021/07/03 04:56:38;;;;;;;66.13;39.92;;;16.10;92.80;;;;;;5057596;28;20174;-87
2021/07/03 04:59:04;;;;;;;66.03;40.50;;;16.20;92.90;;;;;;5058010;28;20021;-88
2021/07/03 05:01:30;;;;;;;67.25;42.22;;;16.20;92.80;;;;;;5057768;28;20476;-86
2021/07/03 05:03:55;;;;;;;70.00;43.28;;;16.30;92.80;;;;;;5058604;28;20064;-86
2021/07/03 05:06:21;;;;;;;73.20;42.03;;;16.30;92.70;;;;;;5062185;28;20041;-85
2021/07/03 05:08:47;;;;;;;74.80;45.83;;;16.30;92.60;;;;;;5076397;28;20004;-85
2021/07/03 05:11:12;;;;;;;78.10;45.75;;;16.30;92.70;;;;;;5074982;28;20024;-86
2021/07/03 05:13:38;;;;;;;66.95;41.40;;;16.40;92.70;;;;;;5065025;28;20028;-88
2021/07/03 05:16:04;;;;;;;67.05;40.65;;;16.40;92.70;;;;;;5058935;28;20031;-87
2021/07/03 05:18:30;;;;;;;66.28;42.25;;;16.40;92.60;;;;;;5057086;28;20028;-87
2021/07/03 05:20:55;;;;;;;70.00;43.50;;;16.40;92.60;;;;;;5057204;28;20039;-88
2021/07/03 05:23:21;;;;;;;62.95;41.17;;;16.40;92.60;;;;;;5058056;28;20036;-88
2021/07/03 05:25:47;;;;;;;64.57;42.42;;;16.50;92.50;;;;;;5056617;28;20047;-86
2021/07/03 05:28:13;;;;;;;64.82;40.75;;;16.60;92.40;;;;;;5057703;28;20037;-87
2021/07/03 05:30:40;;;;;;;66.13;42.47;;;16.60;92.30;;;;;;5056651;28;20099;-86
2021/07/03 05:33:06;;;;;;;62.47;40.38;;;16.70;92.30;;;;;;5057424;28;20039;-84
2021/07/03 05:35:32;;;;;;;57.83;38.28;;;16.80;92.10;;;;;;5058128;28;20032;-86
2021/07/03 05:37:57;;;;;;;58.83;37.03;;;16.80;92.00;;;;;;5058788;28;20021;-86
2021/07/03 05:40:23;;;;;;;54.70;34.75;;;16.90;92.20;;;;;;5058763;28;20116;-84
2021/07/03 05:42:49;;;;;;;61.72;37.53;;;17.00;91.80;;;;;;5058273;28;20017;-86
2021/07/03 05:45:15;;;;;;;62.88;41.30;;;17.10;91.70;;;;;;5058436;28;20024;-87
2021/07/03 05:47:49;;;;;;;66.47;41.53;;;17.20;91.40;;;;;;5061789;28;20027;-86
2021/07/03 05:50:16;;;;;;;61.88;38.88;;;17.40;91.30;;;;;;5058790;28;20123;-87
2021/07/03 05:52:41;;;;;;;55.13;36.25;;;17.50;90.90;;;;;;5057955;28;20033;-86
2021/07/03 05:55:07;;;;;;;55.10;36.50;;;17.60;90.80;;;;;;5058765;28;20492;-87
2021/07/03 05:57:33;;;;;;;58.80;37.08;;;17.70;90.60;;;;;;5056476;28;20052;-86
2021/07/03 05:59:58;;;;;;;53.10;37.55;;;17.80;90.50;;;;;;5057789;28;20047;-87
2021/07/03 06:02:24;;;;;;;46.30;29.75;;;17.90;90.30;;;;;;5056902;28;20631;-85
2021/07/03 06:04:50;;;;;;;50.28;31.73;;;18.00;90.00;;;;;;5061139;28;20059;-84
2021/07/03 06:07:15;;;;;;;68.65;42.60;;;18.10;89.10;;;;;;5066410;28;20024;-87
2021/07/03 06:09:41;;;;;;;61.22;40.33;;;18.20;88.60;;;;;;5073581;28;20021;-87
2021/07/03 06:12:07;;;;;;;64.35;44.35;;;18.40;88.30;;;;;;5061573;28;20035;-85
2021/07/03 06:14:33;;;;;;;52.80;36.63;;;18.40;86.40;;;;;;5066455;28;20476;-85
2021/07/03 06:16:58;;;;;;;57.88;41.28;;;18.50;85.80;;;;;;5059286;28;20571;-86
2021/07/03 06:19:24;;;;;;;52.45;34.00;;;18.60;86.30;;;;;;5054973;28;20078;-87
2021/07/03 06:21:50;;;;;;;53.47;37.25;;;18.70;85.90;;;;;;5057446;28;20456;-87
2021/07/03 06:24:15;;;;;;;50.20;33.08;;;18.80;85.50;;;;;;5057760;28;20024;-86
2021/07/03 06:26:41;;;;;;;34.70;23.88;;;18.80;85.50;;;;;;5058415;28;20116;-87
2021/07/03 06:29:07;;;;;;;48.88;32.22;;;18.90;82.20;;;;;;5058612;28;20025;-87
2021/07/03 06:31:32;;;;;;;43.50;28.50;;;19.00;80.90;;;;;;5059263;28;20058;-86
2021/07/03 06:33:58;;;;;;;56.38;38.50;;;19.10;82.90;;;;;;5060730;28;20020;-86
2021/07/03 06:36:25;;;;;;;54.47;37.80;;;19.10;82.80;;;;;;5072922;28;20040;-86
2021/07/03 06:38:51;;;;;;;44.13;30.38;;;19.20;82.40;;;;;;5071411;28;20029;-86
2021/07/03 06:41:17;;;;;;;34.08;23.13;;;19.20;82.90;;;;;;5058347;28;20477;-86
2021/07/03 06:43:43;;;;;;;44.00;29.02;;;19.40;81.80;;;;;;5056267;28;20166;-88
2021/07/03 06:46:09;;;;;;;42.20;27.10;;;19.40;81.40;;;;;;5056591;28;20056;-87
2021/07/03 06:48:34;;;;;;;35.05;24.05;;;19.50;81.60;;;;;;5058449;28;20039;-86
2021/07/03 06:51:00;;;;;;;28.50;19.83;;;19.50;81.00;;;;;;5058915;28;20528;-86
2021/07/03 06:53:26;;;;;;;34.05;24.13;;;19.60;80.10;;;;;;5059323;28;20095;-88
2021/07/03 06:55:51;;;;;;;53.25;34.55;;;19.70;81.30;;;;;;5059953;28;20012;-89
2021/07/03 06:58:17;;;;;;;33.58;23.13;;;19.80;80.80;;;;;;5058581;28;20063;-87
2021/07/03 07:00:42;;;;;;;40.88;28.63;;;19.90;79.50;;;;;;5060164;28;20035;-87
2021/07/03 07:03:10;;;;;;;44.65;32.30;;;20.10;77.90;;;;;;5062243;28;20050;-87
2021/07/03 07:05:36;;;;;;;37.80;26.88;;;20.20;78.60;;;;;;5060599;28;20111;-88
2021/07/03 07:08:02;;;;;;;26.23;18.95;;;20.40;78.40;;;;;;5060165;28;20056;-86
2021/07/03 07:10:28;;;;;;;37.17;26.23;;;20.40;75.10;;;;;;5068074;28;20040;-86
2021/07/03 07:12:53;;;;;;;44.28;30.23;;;20.40;76.00;;;;;;5079145;28;20020;-84
2021/07/03 07:15:19;;;;;;;37.50;28.80;;;20.60;76.70;;;;;;5071192;28;20020;-88
2021/07/03 07:17:45;;;;;;;27.92;18.30;;;20.70;76.10;;;;;;5065022;28;20107;-87
2021/07/03 07:20:14;;;;;;;38.70;30.00;;;20.70;75.50;;;;;;5062121;28;20028;-87
2021/07/03 07:22:40;;;;;;;34.95;23.70;;;20.90;75.40;;;;;;5061670;28;20029;-87
2021/07/03 07:25:06;;;;;;;39.25;27.25;;;21.10;75.30;;;;;;5062775;28;20035;-88
2021/07/03 07:27:32;;;;;;;35.97;27.15;;;21.20;74.50;;;;;;5060901;28;20115;-88
2021/07/03 07:29:58;;;;;;;30.65;23.70;;;21.30;73.40;;;;;;5062561;28;20048;-87
2021/07/03 07:32:24;;;;;;;32.42;22.90;;;21.30;73.10;;;;;;5061696;28;20036;-87
2021/07/03 07:34:55;;;;;;;36.20;24.98;;;21.40;71.90;;;;;;5063560;28;20021;-87
2021/07/03 07:37:24;;;;;;;37.75;27.58;;;21.60;73.60;;;;;;5063865;28;20031;-86
2021/07/03 07:39:53;;;;;;;40.22;32.00;;;21.60;71.10;;;;;;5062845;28;20481;-87
2021/07/03 07:42:19;;;;;;;43.00;30.67;;;21.70;71.60;;;;;;5061920;28;20032;-89
2021/07/03 07:44:44;;;;;;;35.10;24.02;;;21.70;70.70;;;;;;5061981;28;20024;-89
2021/07/03 07:47:15;;;;;;;33.80;24.38;;;21.70;71.10;;;;;;5062301;28;20020;-88
2021/07/03 07:49:41;;;;;;;43.63;33.55;;;21.80;69.20;;;;;;5061690;28;20503;-88
2021/07/03 07:52:07;;;;;;;21.88;14.85;;;21.80;69.80;;;;;;5062390;28;20029;-87
2021/07/03 07:54:33;;;;;;;31.10;22.77;;;21.80;68.50;;;;;;5062302;28;20040;-88
2021/07/03 07:57:01;;;;;;;35.92;27.58;;;21.90;69.20;;;;;;5063414;28;20027;-88
2021/07/03 07:59:27;;;;;;;21.02;16.00;;;22.00;69.40;;;;;;5062365;28;20113;-86
2021/07/03 08:01:52;;;;;;;24.20;18.27;;;22.10;68.50;;;;;;5060218;28;20111;-88
2021/07/03 08:04:18;;;;;;;26.67;16.83;;;22.10;69.20;;;;;;5061212;28;20093;-88
2021/07/03 08:06:44;;;;;;;25.85;19.05;;;22.40;68.20;;;;;;5071766;28;20029;-90
2021/07/03 08:09:09;;;;;;;30.27;22.95;;;22.50;67.50;;;;;;5069540;28;20525;-90
2021/07/03 08:11:35;;;;;;;21.17;15.13;;;22.60;67.10;;;;;;5073422;28;20040;-89
2021/07/03 08:14:01;;;;;;;37.85;29.45;;;22.70;66.80;;;;;;5067484;28;20070;-88
2021/07/03 08:16:27;;;;;;;22.10;16.98;;;22.80;66.20;;;;;;5061552;28;20078;-90
2021/07/03 08:18:53;;;;;;;30.52;22.08;;;22.90;66.20;;;;;;5060578;28;20384;-88
2021/07/03 08:21:19;;;;;;;20.35;15.13;;;22.90;66.20;;;;;;5060507;28;20025;-88
2021/07/03 08:23:45;;;;;;;26.58;20.02;;;23.10;65.70;;;;;;5064200;28;20009;-88
2021/07/03 08:26:11;;;;;;;35.45;29.33;;;23.20;65.90;;;;;;5071824;28;20027;-89
2021/07/03 08:28:37;;;;;;;24.17;16.63;;;23.20;65.00;;;;;;5080589;28;20005;-88
2021/07/03 08:31:03;;;;;;;37.17;26.50;;;23.20;65.50;;;;;;5067279;28;20040;-88
2021/07/03 08:33:29;;;;;;;24.65;19.83;;;23.30;66.00;;;;;;5065975;28;20021;-88
2021/07/03 08:35:54;;;;;;;25.00;16.75;;;23.40;65.50;;;;;;5064585;28;20021;-88
2021/07/03 08:38:20;;;;;;;29.13;24.10;;;23.50;64.50;;;;;;5060794;28;20021;-89
2021/07/03 08:40:48;;;;;;;27.52;21.13;;;23.50;64.60;;;;;;5059919;28;20116;-87
2021/07/03 08:43:13;;;;;;;28.65;21.20;;;23.60;65.00;;;;;;5076471;28;20486;-86
2021/07/03 08:45:39;;;;;;;28.13;20.65;;;23.60;64.40;;;;;;5060494;28;20024;-87
2021/07/03 08:48:04;;;;;;;35.70;26.02;;;23.60;64.60;;;;;;5060467;28;20031;-88
2021/07/03 08:50:30;;;;;;;23.55;17.52;;;23.70;64.30;;;;;;5060093;28;20040;-89
2021/07/03 08:52:56;;;;;;;18.08;11.48;;;23.90;64.50;;;;;;5060089;28;20478;-86
2021/07/03 08:55:30;;;;;;;14.20;10.63;;;23.90;63.60;;;;;;5060090;28;20028;-89
2021/07/03 08:58:02;;;;;;;13.75;8.10;;;23.90;64.00;;;;;;5059963;28;20052;-87
2021/07/03 09:00:41;;;;;;;21.95;14.98;;;24.10;63.70;;;;;;5059549;28;20020;-89
2021/07/03 09:03:36;;;;;;;27.30;20.88;;;24.20;63.70;;;;;;5058369;28;20024;-88
2021/07/03 09:06:09;;;;;;;24.35;16.83;;;24.40;62.20;;;;;;5043014;28;20033;-91
2021/07/03 09:08:35;;;;;;;16.20;11.52;;;24.40;63.10;;;;;;5060949;28;20033;-90
2021/07/03 09:11:02;;;;;;;26.42;19.20;;;24.60;62.80;;;;;;5060937;28;20066;-89
2021/07/03 09:13:28;;;;;;;27.15;19.38;;;24.80;61.20;;;;;;5062502;28;20032;-88
2021/07/03 09:15:54;;;;;;;19.45;13.75;;;24.90;60.40;;;;;;5069779;28;20012;-89
2021/07/03 09:18:27;;;;;;;22.38;14.27;;;24.90;60.10;;;;;;5097721;28;20020;-87
2021/07/03 09:21:03;;;;;;;23.52;18.65;;;25.20;61.10;;;;;;5075648;28;20546;-88
2021/07/03 09:23:34;;;;;;;26.13;17.00;;;25.40;58.60;;;;;;5059167;28;20043;-88
2021/07/03 09:26:03;;;;;;;10.60;7.05;;;25.30;58.80;;;;;;5058098;28;20029;-89
2021/07/03 09:28:38;;;;;;;14.02;9.77;;;25.30;60.50;;;;;;5059653;28;20020;-88
2021/07/03 09:31:05;;;;;;;15.10;9.90;;;25.30;60.20;;;;;;5059573;28;20027;-88
2021/07/03 09:33:34;;;;;;;15.13;11.40;;;25.50;59.40;;;;;;5060060;28;20051;-89
2021/07/03 09:36:08;;;;;;;10.43;6.60;;;25.60;56.30;;;;;;5061361;28;20031;-88
2021/07/03 09:38:35;;;;;;;12.77;9.68;;;25.70;58.80;;;;;;5061180;28;20457;-87
2021/07/03 09:41:22;;;;;;;11.30;6.97;;;25.90;59.50;;;;;;5061430;28;20016;-87
2021/07/03 09:43:48;;;;;;;9.30;7.15;;;26.00;59.20;;;;;;5060182;28;20029;-88
2021/07/03 09:46:33;;;;;;;16.40;9.20;;;26.10;57.80;;;;;;5083246;28;20028;-88
2021/07/03 09:49:11;;;;;;;10.05;7.75;;;26.10;52.20;;;;;;5063993;28;20043;-86
2021/07/03 09:51:48;;;;;;;13.10;7.78;;;26.10;53.90;;;;;;5063830;28;20098;-88
2021/07/03 09:54:16;;;;;;;9.90;6.72;;;26.10;57.70;;;;;;5061040;28;20368;-88
2021/07/03 09:56:42;;;;;;;17.80;13.18;;;26.10;59.50;;;;;;5078035;28;20052;-88
2021/07/03 09:59:09;;;;;;;12.10;8.25;;;26.10;53.80;;;;;;5059061;28;20120;-87
2021/07/03 10:01:39;;;;;;;20.70;13.55;;;26.10;57.10;;;;;;5065939;28;20032;-89
2021/07/03 10:04:05;;;;;;;10.60;7.65;;;26.40;53.90;;;;;;5064117;28;20465;-86
2021/07/03 10:06:41;;;;;;;17.98;12.18;;;26.50;56.70;;;;;;5089909;28;20024;-85
2021/07/03 10:09:12;;;;;;;10.25;7.72;;;26.50;55.50;;;;;;5081883;28;20060;-86
2021/07/03 10:11:44;;;;;;;20.27;13.43;;;26.70;56.60;;;;;;5070401;28;20074;-85
2021/07/03 10:14:09;;;;;;;14.52;10.50;;;26.80;54.50;;;;;;5081673;28;20461;-86
2021/07/03 10:16:35;;;;;;;9.73;6.32;;;27.00;54.90;;;;;;5060013;28;20025;-86
2021/07/03 10:19:10;;;;;;;10.77;7.82;;;27.20;58.60;;;;;;5064237;28;20020;-87
2021/07/03 10:21:37;;;;;;;12.30;9.45;;;27.40;57.10;;;;;;5071473;28;20025;-84
2021/07/03 10:24:03;;;;;;;17.48;12.48;;;27.30;58.20;;;;;;5075101;28;20029;-86
2021/07/03 10:26:39;;;;;;;12.05;8.18;;;27.30;57.60;;;;;;5076210;28;20062;-89
2021/07/03 10:29:22;;;;;;;11.38;7.53;;;27.20;58.10;;;;;;5058400;28;20023;-88
2021/07/03 10:31:51;;;;;;;20.40;12.88;;;27.30;56.10;;;;;;5058735;28;20503;-88
2021/07/03 10:34:33;;;;;;;16.40;13.25;;;27.40;55.40;;;;;;5076783;28;20196;-89
2021/07/03 10:37:03;;;;;;;19.13;13.32;;;27.50;57.20;;;;;;5061822;28;20009;-88
2021/07/03 10:39:33;;;;;;;17.40;11.50;;;27.50;53.10;;;;;;5062444;28;20380;-88
2021/07/03 10:41:59;;;;;;;;;;;27.50;56.10;;;;;;5062526;28;20381;-87
2021/07/03 10:44:43;;;;;;;11.85;7.65;;;27.70;53.10;;;;;;5061672;28;20361;-87
2021/07/03 10:47:11;;;;;;;16.15;12.10;;;27.80;56.50;;;;;;5061356;28;20016;-89
2021/07/03 10:49:38;;;;;;;12.80;9.75;;;28.10;54.50;;;;;;5061943;28;20040;-87
2021/07/03 10:52:17;;;;;;;8.55;6.35;;;28.40;56.30;;;;;;5061276;28;20388;-87
2021/07/03 10:54:44;;;;;;;8.57;6.50;;;28.50;56.50;;;;;;5062082;28;20024;-88
2021/07/03 10:57:11;;;;;;;10.98;6.97;;;28.60;57.60;;;;;;5062477;28;20108;-89
2021/07/03 10:59:39;;;;;;;14.80;10.25;;;28.70;56.10;;;;;;5062896;28;20025;-87
2021/07/03 11:02:13;;;;;;;14.00;10.38;;;29.10;55.00;;;;;;5065692;28;20035;-88
2021/07/03 11:04:50;;;;;;;7.72;5.75;;;29.30;52.70;;;;;;5064146;28;20020;-88
2021/07/03 11:07:36;;;;;;;10.80;7.95;;;29.50;53.70;;;;;;5062091;28;20017;-89
2021/07/03 11:10:07;;;;;;;8.43;5.68;;;29.60;54.00;;;;;;5060898;28;20037;-85
2021/07/03 11:12:47;;;;;;;7.72;5.25;;;29.70;54.20;;;;;;5062178;28;20070;-88
2021/07/03 11:15:15;;;;;;;13.73;6.97;;;29.70;56.50;;;;;;5062340;28;20465;-88
2021/07/03 11:17:40;;;;;;;10.05;5.47;;;29.80;53.30;;;;;;5066110;28;20461;-89
2021/07/03 11:20:07;;;;;;;7.65;5.35;;;29.80;55.50;;;;;;5077173;28;20012;-87
2021/07/03 11:22:32;;;;;;;10.88;7.00;;;29.90;54.60;;;;;;5081077;28;20039;-89
2021/07/03 11:24:59;;;;;;;11.20;8.25;;;30.00;50.00;;;;;;5080390;28;20016;-89
2021/07/03 11:27:42;;;;;;;15.35;9.43;;;30.00;52.20;;;;;;5067406;28;20118;-87
2021/07/03 11:30:26;;;;;;;14.25;8.75;;;29.90;49.40;;;;;;5068190;28;20023;-91
2021/07/03 11:32:59;;;;;;;14.30;10.23;;;29.80;55.40;;;;;;5065385;28;20040;-90
2021/07/03 11:35:29;;;;;;;7.10;4.90;;;29.90;49.70;;;;;;5064191;28;20024;-88
2021/07/03 11:37:55;;;;;;;10.88;8.20;;;29.70;53.80;;;;;;5081155;28;20023;-88
2021/07/03 11:40:24;;;;;;;11.30;6.88;;;29.40;45.90;;;;;;5061355;28;20024;-88
2021/07/03 11:42:52;;;;;;;10.67;7.80;;;29.50;50.00;;;;;;5062264;28;20028;-88
2021/07/03 11:45:23;;;;;;;9.85;7.05;;;29.60;48.20;;;;;;5061588;28;20078;-88
2021/07/03 11:48:09;;;;;;;11.77;8.10;;;29.50;48.70;;;;;;5066573;28;20016;-86
2021/07/03 11:50:43;;;;;;;10.27;6.75;;;29.30;48.00;;;;;;5065584;28;20110;-88
2021/07/03 11:53:12;;;;;;;10.10;6.07;;;29.10;50.80;;;;;;5065758;28;20081;-87
2021/07/03 11:55:52;;;;;;;7.38;5.45;;;28.90;53.90;;;;;;5067423;28;20025;-87
2021/07/03 11:58:22;;;;;;;8.23;5.28;;;28.60;55.10;;;;;;5063845;28;20052;-84
2021/07/03 12:00:55;;;;;;;8.48;5.90;;;28.50;52.80;;;;;;5064290;28;20389;-86
2021/07/03 12:03:32;;;;;;;6.50;4.78;;;28.40;53.20;;;;;;5064874;28;20123;-88
2021/07/03 12:05:59;;;;;;;9.20;6.07;;;28.50;57.80;;;;;;5071107;28;20094;-86
2021/07/03 12:08:35;;;;;;;6.40;4.75;;;28.40;55.50;;;;;;5067493;28;20033;-87
2021/07/03 12:11:03;;;;;;;6.57;4.40;;;28.50;59.30;;;;;;5075709;28;20028;-88
2021/07/03 12:13:44;;;;;;;7.07;4.95;;;28.60;60.20;;;;;;5070502;28;20119;-87
2021/07/03 12:16:11;;;;;;;8.13;5.10;;;28.80;59.40;;;;;;5063055;28;20025;-87
2021/07/03 12:18:40;;;;;;;10.15;6.30;;;28.90;59.60;;;;;;5063581;28;20045;-88
2021/07/03 12:21:08;;;;;;;8.77;6.00;;;29.00;56.50;;;;;;5061563;28;20162;-87
2021/07/03 12:23:35;;;;;;;9.07;6.03;;;29.10;54.50;;;;;;5060447;28;20044;-86
2021/07/03 12:26:03;;;;;;;7.28;5.57;;;29.10;56.00;;;;;;5058863;28;20028;-87
2021/07/03 12:28:30;;;;;;;7.00;4.72;;;28.80;51.00;;;;;;5059901;28;20055;-88
2021/07/03 12:31:10;;;;;;;8.10;5.40;;;28.60;56.80;;;;;;5058286;28;20029;-85
2021/07/03 12:33:36;;;;;;;;;;;28.50;54.40;;;;;;5061274;28;20059;-86